Flight Track Log - Related Links

Times and Time Zones

All times are in EDT time to prevent confusion due to time zone crossing. See the GJS3618 flight status page for this flight to view local times or setup timezone preferences in your user account.

Time Position Orientation Groundspeed Altitude Reporting Facility
EDT Latitude Longitude Course Direction KTS MPH feet Rate Location/Type
Thu 12:37:35 AM 42.0167 -87.9667 294° West 166 191 2,100  Level Chicago TRACON
Thu 12:38:35 AM 42.0333 -88.0167 294° West 210 242 3,700 1,825 Climbing Chicago TRACON
Thu 12:40:49 AM 42.1156 -88.1831 304° West 280 322 8,000 2,031 Climbing Chicago Center
Thu 12:41:50 AM 42.1881 -88.1408 23° Northeast 286 329 10,300 2,380 Climbing Chicago Center
Thu 12:42:50 AM 42.2586 -88.0881 29° Northeast 289 333 12,800 2,200 Climbing Chicago Center
Thu 12:43:50 AM 42.3383 -88.0825 North 291 335 14,700 1,587 Climbing Chicago Center
Thu 12:44:51 AM 42.4247 -88.1044 349° North 313 360 16,000 1,289 Climbing Chicago Center
Thu 12:45:51 AM 42.5217 -88.1297 349° North 349 402 17,300 1,438 Climbing Chicago Center
Thu 12:46:52 AM 42.6394 -88.1594 349° North 366 421 18,900 1,587 Climbing Chicago Center
Thu 12:47:52 AM 42.7419 -88.1858 349° North 374 430 20,500 1,500 Climbing Chicago Center
Thu 12:48:52 AM 42.8456 -88.2125 349° North 378 435 21,900 1,339 Climbing Chicago Center
Thu 12:49:53 AM 42.9494 -88.2397 349° North 381 438 23,200 1,140 Climbing Chicago Center
Thu 12:50:53 AM 43.0481 -88.2931 338° Northwest 396 456 24,200 1,050 Climbing Chicago Center
Thu 12:51:53 AM 43.0886 -88.4322 292° West 398 458 25,300 1,091 Climbing Chicago Center
Thu 12:52:54 AM 43.1219 -88.5764 288° West 394 453 26,400 1,041 Climbing Chicago Center
Thu 12:53:54 AM 43.1561 -88.7231 288° West 399 459 27,400 850 Climbing Chicago Center
Thu 12:54:54 AM 43.1844 -88.8447 288° West 400 460 28,100 744 Climbing Chicago Center
Thu 12:55:55 AM 43.2194 -88.9947 288° West 407 468 28,900 793 Climbing Chicago Center
Thu 12:56:55 AM 43.2539 -89.1450 288° West 411 473 29,700 800 Climbing Chicago Center
Thu 12:57:55 AM 43.2881 -89.2947 287° West 410 472 30,500 800 Climbing Chicago Center
Thu 12:58:55 AM 43.3222 -89.4472 287° West 415 478 31,300 793 Climbing Chicago Center
Thu 12:59:56 AM 43.3547 -89.5981 287° West 412 474 32,100 793 Climbing Chicago Center
Thu 01:00:56 AM 43.3878 -89.7478 287° West 410 472 32,900 900 Climbing Chicago Center
Thu 01:01:56 AM 43.4197 -89.8956 287° West 405 466 33,900 950 Climbing Chicago Center
Thu 01:02:56 AM 43.4511 -90.0414 287° West 398 458 34,800 843 Climbing Chicago Center
Thu 01:03:57 AM 43.4825 -90.1847 287° West 392 451 35,600 694 Climbing Chicago Center
Thu 01:04:57 AM 43.5153 -90.3414 286° West 387 445 36,200 550 Climbing Chicago Center
Thu 01:05:57 AM 43.5453 -90.4831 286° West 390 449 36,700 450 Climbing Chicago Center
Thu 01:06:57 AM 43.5758 -90.6239 287° West 389 448 37,100 298 Climbing Chicago Center
Thu 01:07:58 AM 43.6064 -90.7675 286° West 394 453 37,300 268 Climbing Chicago Center
Thu 01:08:49 AM 43.6311 -90.8831 287° West 400 460 37,600 378 Climbing Minneapolis Center
Thu 01:09:49 AM 43.6614 -91.0292 286° West 401 461 38,000 200 Climbing Minneapolis Center
Thu 01:10:49 AM 43.6919 -91.1739 286° West 400 460 38,000  Level Minneapolis Center
Thu 01:11:50 AM 43.7208 -91.3231 285° West 404 465 38,000  Level Minneapolis Center
Thu 01:12:50 AM 43.7572 -91.5014 286° West 406 467 38,000  Level Minneapolis Center
Thu 01:13:50 AM 43.7875 -91.6519 286° West 409 471 38,000  Level Minneapolis Center
Thu 01:14:51 AM 43.8150 -91.7953 285° West 407 468 38,000  Level Minneapolis Center
Thu 01:15:51 AM 43.8444 -91.9456 285° West 405 466 38,000  Level Minneapolis Center
Thu 01:16:51 AM 43.8731 -92.0914 285° West 397 457 38,000  Level Minneapolis Center
Thu 01:17:52 AM 43.8997 -92.2367 284° West 391 450 38,000  Level Minneapolis Center
Thu 01:18:52 AM 43.9261 -92.3772 285° West 382 440 38,000 -300 Level Minneapolis Center
Thu 01:19:52 AM 43.9539 -92.5119 286° West 369 425 37,400 -800 Descending Minneapolis Center
Thu 01:20:52 AM 43.9797 -92.6489 285° West 367 422 36,400 -694 Descending Minneapolis Center
Thu 01:21:53 AM 44.0061 -92.7889 285° West 372 428 36,000 -198 Descending Minneapolis Center
Thu 01:22:53 AM 44.0333 -92.9333 285° West 381 438 36,000  Level Minneapolis Center
Thu 01:23:53 AM 44.0622 -93.0814 285° West 395 455 36,000  Level Minneapolis Center
Thu 01:24:54 AM 44.0886 -93.2306 284° West 396 456 36,000  Level Minneapolis Center
Thu 01:25:54 AM 44.1164 -93.3794 285° West 396 456 36,000  Level Minneapolis Center
Thu 01:26:54 AM 44.1439 -93.5272 285° West 394 453 36,000  Level Minneapolis Center
Thu 01:27:55 AM 44.1706 -93.6753 284° West 392 451 36,000  Level Minneapolis Center
Thu 01:28:55 AM 44.1969 -93.8225 284° West 391 450 36,000  Level Minneapolis Center
Thu 01:29:55 AM 44.2228 -93.9697 284° West 390 449 36,000  Level Minneapolis Center
Thu 01:30:55 AM 44.2492 -94.1183 284° West 393 452 36,000  Level Minneapolis Center
Thu 01:31:56 AM 44.2756 -94.2658 284° West 392 451 36,000  Level Minneapolis Center
Thu 01:32:56 AM 44.3017 -94.4133 284° West 391 450 36,000  Level Minneapolis Center
Thu 01:33:56 AM 44.3264 -94.5600 283° West 389 448 36,000  Level Minneapolis Center
Thu 01:34:56 AM 44.3553 -94.7242 284° West 389 448 36,000  Level Minneapolis Center
Thu 01:35:57 AM 44.3797 -94.8714 283° West 390 449 36,000  Level Minneapolis Center
Thu 01:36:57 AM 44.4042 -95.0183 283° West 390 449 36,000  Level Minneapolis Center
Thu 01:37:59 AM 44.4292 -95.1669 283° West 393 452 36,000  Level Minneapolis Center
Thu 01:39:00 AM 44.4531 -95.3144 283° West 391 450 36,000  Level Minneapolis Center
Thu 01:40:00 AM 44.4767 -95.4617 283° West 391 450 36,000  Level Minneapolis Center
Thu 01:41:00 AM 44.5014 -95.6081 283° West 389 448 36,000  Level Minneapolis Center
Thu 01:42:00 AM 44.5244 -95.7544 283° West 389 448 36,000  Level Minneapolis Center
Thu 01:43:01 AM 44.5481 -95.9014 283° West 390 449 36,000  Level Minneapolis Center
Thu 01:44:01 AM 44.5703 -96.0494 282° West 392 451 36,000  Level Minneapolis Center
Thu 01:45:01 AM 44.5936 -96.1936 283° West 386 444 36,000  Level Minneapolis Center
Thu 01:46:01 AM 44.6158 -96.3411 282° West 388 447 36,000  Level Minneapolis Center
Thu 01:47:01 AM 44.6392 -96.4892 283° West 390 449 36,000 -248 Level Minneapolis Center
Thu 01:48:02 AM 44.6603 -96.6372 281° West 390 449 35,500 -793 Descending Minneapolis Center
Thu 01:49:02 AM 44.6828 -96.7861 282° West 391 450 34,400 -750 Descending Minneapolis Center
Thu 01:50:02 AM 44.7042 -96.9336 282° West 389 448 34,000 -200 Descending Minneapolis Center
Thu 01:51:02 AM 44.7256 -97.0794 282° West 385 443 34,000  Level Minneapolis Center
Thu 01:52:03 AM 44.7481 -97.2244 282° West 382 440 34,000  Level Minneapolis Center
Thu 01:53:03 AM 44.7700 -97.3744 282° West 389 448 34,000  Level Minneapolis Center
Thu 01:54:03 AM 44.7908 -97.5281 281° West 397 457 34,000  Level Minneapolis Center
Thu 01:55:03 AM 44.8139 -97.6800 282° West 398 458 34,000  Level Minneapolis Center
Thu 01:56:03 AM 44.8397 -97.8614 281° West 396 456 34,000  Level Minneapolis Center
Thu 01:57:04 AM 44.8600 -98.0147 281° West 397 457 34,000  Level Minneapolis Center
Thu 01:58:04 AM 44.8811 -98.1667 281° West 397 457 34,000  Level Minneapolis Center
Thu 01:59:09 AM 44.9022 -98.3225 281° West 402 463 34,000  Level Minneapolis Center
Thu 02:00:09 AM 44.9239 -98.4792 281° West 409 471 34,000  Level Minneapolis Center
Thu 02:01:09 AM 44.9444 -98.6411 280° West 416 479 34,000  Level Minneapolis Center
Thu 02:02:21 AM 44.9653 -98.8017 280° West 417 480 34,000  Level Minneapolis Center
Thu 02:03:21 AM 44.9906 -98.9961 280° West 418 481 34,000  Level Minneapolis Center
Thu 02:04:22 AM 45.0108 -99.1575 280° West 419 482 34,000  Level Minneapolis Center
Thu 02:05:22 AM 45.0314 -99.3192 280° West 419 482 34,000  Level Minneapolis Center
Thu 02:06:22 AM 45.0511 -99.4789 280° West 417 480 34,000  Level Minneapolis Center
Thu 02:07:22 AM 45.0717 -99.6400 280° West 417 480 34,000  Level Minneapolis Center
Thu 02:08:23 AM 45.0922 -99.7978 281° West 415 478 34,000  Level Minneapolis Center
Thu 02:09:23 AM 45.1125 -99.9669 280° West 423 487 34,000  Level Minneapolis Center
Thu 02:10:23 AM 45.1336 -100.1522 279° West 425 489 34,000  Level Minneapolis Center
Thu 02:11:23 AM 45.1525 -100.3133 279° West 421 484 34,000  Level Minneapolis Center
Thu 02:12:23 AM 45.1714 -100.4761 279° West 420 483 34,000  Level Minneapolis Center
Thu 02:13:24 AM 45.1897 -100.6383 279° West 419 482 34,000  Level Minneapolis Center
Thu 02:14:24 AM 45.2069 -100.8008 279° West 418 481 34,000  Level Minneapolis Center
Thu 02:15:24 AM 45.2258 -100.9650 279° West 420 483 34,000  Level Minneapolis Center
Thu 02:16:24 AM 45.2447 -101.1281 279° West 421 484 34,000  Level Minneapolis Center
Thu 02:17:25 AM 45.2628 -101.2914 279° West 420 483 34,000  Level Minneapolis Center
Thu 02:18:25 AM 45.2811 -101.4553 279° West 421 484 34,000  Level Minneapolis Center
Thu 02:19:25 AM 45.2978 -101.6211 278° West 423 487 34,000  Level Minneapolis Center
Thu 02:20:25 AM 45.3156 -101.7867 279° West 424 488 34,000  Level Minneapolis Center
Thu 02:21:26 AM 45.3317 -101.9522 278° West 423 487 34,000  Level Minneapolis Center
Thu 02:22:26 AM 45.3492 -102.1192 279° West 426 490 34,000  Level Minneapolis Center
Thu 02:23:26 AM 45.3658 -102.2844 278° West 426 490 34,000  Level Minneapolis Center
Thu 02:24:26 AM 45.3819 -102.4514 278° West 426 490 34,000  Level Minneapolis Center
Thu 02:25:27 AM 45.3983 -102.6181 278° West 426 490 34,000  Level Minneapolis Center
Thu 02:26:27 AM 45.4139 -102.7850 278° West 426 490 34,000  Level Minneapolis Center
Thu 02:27:27 AM 45.4292 -102.9517 278° West 426 490 34,000  Level Minneapolis Center
Thu 02:28:27 AM 45.4436 -103.1192 277° West 426 490 34,000  Level Minneapolis Center
Thu 02:29:28 AM 45.4586 -103.2850 277° West 425 489 34,000  Level Minneapolis Center
Thu 02:30:18 AM 45.4703 -103.4183 277° West 424 488 34,000  Level Salt Lake Center
Thu 02:31:18 AM 45.4856 -103.5861 277° West 427 491 34,000  Level Salt Lake Center
Thu 02:32:19 AM 45.5000 -103.7550 277° West 429 494 34,000  Level Salt Lake Center
Thu 02:33:19 AM 45.5136 -103.9228 277° West 429 494 34,000  Level Salt Lake Center
Thu 02:34:19 AM 45.5275 -104.0894 277° West 426 490 34,000  Level Salt Lake Center
Thu 02:35:20 AM 45.5417 -104.2597 277° West 430 495 34,000  Level Salt Lake Center
Thu 02:36:20 AM 45.5558 -104.4308 277° West 433 498 34,000  Level Salt Lake Center
Thu 02:37:21 AM 45.5711 -104.6178 277° West 432 497 34,000  Level Salt Lake Center
Thu 02:38:21 AM 45.5836 -104.7869 276° West 431 496 34,000  Level Salt Lake Center
Thu 02:39:21 AM 45.5953 -104.9558 276° West 429 494 34,000  Level Salt Lake Center
Thu 02:40:22 AM 45.6086 -105.1253 276° West 432 497 34,000  Level Salt Lake Center
Thu 02:41:22 AM 45.6208 -105.2942 276° West 430 495 34,000  Level Salt Lake Center
Thu 02:42:23 AM 45.6333 -105.4614 276° West 428 493 34,000  Level Salt Lake Center
Thu 02:43:23 AM 45.6447 -105.6306 276° West 427 491 34,000  Level Salt Lake Center
Thu 02:44:23 AM 45.6558 -105.7992 275° West 428 493 34,000  Level Salt Lake Center
Thu 02:45:24 AM 45.6678 -105.9683 276° West 429 494 34,000  Level Salt Lake Center
Thu 02:46:24 AM 45.6781 -106.1383 275° West 430 495 34,000  Level Salt Lake Center
Thu 02:47:25 AM 45.6889 -106.3078 275° West 430 495 34,000  Level Salt Lake Center
Thu 02:48:25 AM 45.6953 -106.4722 273° West 422 486 34,000  Level Salt Lake Center
Thu 02:49:25 AM 45.7064 -106.6431 275° West 426 490 34,000  Level Salt Lake Center
Thu 02:50:26 AM 45.7178 -106.8161 275° West 435 501 34,000  Level Salt Lake Center
Thu 02:51:26 AM 45.7294 -106.9886 276° West 437 503 34,000  Level Salt Lake Center
Thu 02:52:27 AM 45.7386 -107.1614 274° West 438 504 34,000  Level Salt Lake Center
Thu 02:53:27 AM 45.7475 -107.3294 274° West 432 497 34,000  Level Salt Lake Center
Thu 02:54:27 AM 45.7572 -107.5019 275° West 436 502 34,000  Level Salt Lake Center
Thu 02:55:28 AM 45.7656 -107.6739 274° West 438 504 34,000  Level Salt Lake Center
Thu 02:56:28 AM 45.7744 -107.8456 274° West 435 501 34,000  Level Salt Lake Center
Thu 02:57:29 AM 45.7822 -108.0189 274° West 439 505 34,000  Level Salt Lake Center
Thu 02:58:29 AM 45.7917 -108.2244 274° West 435 501 34,000  Level Salt Lake Center
Thu 02:59:29 AM 45.7994 -108.3964 274° West 436 502 34,000  Level Salt Lake Center
Thu 03:00:30 AM 45.8089 -108.5750 274° West 454 522 34,000 -397 Level Salt Lake Center
Thu 03:01:30 AM 45.8092 -108.7528 270° West 452 520 33,200 -1,339 Descending Salt Lake Center
Thu 03:02:31 AM 45.8092 -108.9272 270° West 442 509 31,300 -1,884 Descending Salt Lake Center
Thu 03:03:31 AM 45.8083 -109.0983 270° West 434 499 29,400 -1,900 Descending Salt Lake Center
Thu 03:04:31 AM 45.8078 -109.2678 270° West 428 493 27,500 -1,884 Descending Salt Lake Center
Thu 03:05:32 AM 45.8064 -109.4369 269° West 427 491 25,600 -1,884 Descending Salt Lake Center
Thu 03:06:32 AM 45.8050 -109.6022 269° West 419 482 23,700 -1,884 Descending Salt Lake Center
Thu 03:07:33 AM 45.8031 -109.7644 269° West 410 472 21,800 -1,884 Descending Salt Lake Center
Thu 03:08:33 AM 45.8008 -109.9289 269° West 413 475 19,900 -1,900 Descending Salt Lake Center
Thu 03:09:33 AM 45.7992 -110.0903 269° West 409 471 18,000 -1,587 Descending Salt Lake Center
Thu 03:10:34 AM 45.7964 -110.2489 269° West 403 464 16,700 -1,339 Descending Salt Lake Center
Thu 03:11:34 AM 45.7931 -110.3989 268° West 386 444 15,300 -1,388 Descending Salt Lake Center
Thu 03:12:35 AM 45.7908 -110.5444 269° West 372 428 13,900 -1,388 Descending Salt Lake Center
Thu 03:13:35 AM 45.7889 -110.6847 269° West 359 413 12,500 -950 Descending Salt Lake Center
Thu 03:14:35 AM 45.8189 -110.8047 290° West 346 398 12,000 -248 Descending Salt Lake Center
Thu 03:15:36 AM 45.8653 -110.9239 299° West 342 394 12,000  Level Salt Lake Center
Thu 03:16:36 AM 45.9186 -111.0461 302° West 352 405 12,000  Level Salt Lake Center
Thu 03:17:36 AM 45.9733 -111.1703 302° West 362 417 12,000 -50 Level Salt Lake Center
Thu 03:18:37 AM 46.0197 -111.3208 294° West 361 415 11,900 -98 Descending Salt Lake Center
Thu 03:20:00 AM 45.8812 -111.2271 155° Southeast  Level FlightAware Approximate
Thu 03:27:00 AM 45.7776 -111.1520 177° South  Level Estimated
Thu 03:28:00 AM 45.7776 -111.1520 177° South  Level Estimated
Thu 03:29:00 AM 45.7776 -111.1520 177° South  Level Estimated
Thu 03:30:00 AM 45.7776 -111.1520 177° South  Level Estimated
Thu 03:31:00 AM 45.7776 -111.1520 177° South  Level Estimated
Thu 03:32:00 AM 45.7776 -111.1520 177° South  Level Estimated

Login

Don't have an account? Register now (free) for customized features, flight alerts, and more!